sensor_id;sensor_type;location;lat;lon;timestamp;P1;durP1;ratioP1;P2;durP2;ratioP2
67747;SDS011;54543;50.712;6.070;2023-06-24T00:01:20;7.53;;;5.07;;
67747;SDS011;54543;50.712;6.070;2023-06-24T00:03:47;6.93;;;4.93;;
67747;SDS011;54543;50.712;6.070;2023-06-24T00:06:13;5.75;;;4.50;;
67747;SDS011;54543;50.712;6.070;2023-06-24T00:08:46;6.53;;;4.80;;
67747;SDS011;54543;50.712;6.070;2023-06-24T00:11:12;5.85;;;4.70;;
67747;SDS011;54543;50.712;6.070;2023-06-24T00:13:41;5.97;;;4.68;;
67747;SDS011;54543;50.712;6.070;2023-06-24T00:16:07;5.30;;;4.55;;
67747;SDS011;54543;50.712;6.070;2023-06-24T00:18:34;6.10;;;4.88;;
67747;SDS011;54543;50.712;6.070;2023-06-24T00:21:00;6.22;;;4.68;;
67747;SDS011;54543;50.712;6.070;2023-06-24T00:23:27;6.32;;;4.88;;
67747;SDS011;54543;50.712;6.070;2023-06-24T00:25:53;8.05;;;5.50;;
67747;SDS011;54543;50.712;6.070;2023-06-24T00:28:20;6.45;;;5.00;;
67747;SDS011;54543;50.712;6.070;2023-06-24T00:30:47;7.13;;;5.07;;
67747;SDS011;54543;50.712;6.070;2023-06-24T00:33:12;6.07;;;4.97;;
67747;SDS011;54543;50.712;6.070;2023-06-24T00:35:39;6.53;;;4.95;;
67747;SDS011;54543;50.712;6.070;2023-06-24T00:38:05;6.82;;;5.28;;
67747;SDS011;54543;50.712;6.070;2023-06-24T00:40:31;7.10;;;5.28;;
67747;SDS011;54543;50.712;6.070;2023-06-24T00:42:58;7.88;;;4.93;;
67747;SDS011;54543;50.712;6.070;2023-06-24T00:45:23;10.30;;;5.18;;
67747;SDS011;54543;50.712;6.070;2023-06-24T00:47:49;7.15;;;4.78;;
67747;SDS011;54543;50.712;6.070;2023-06-24T00:50:16;7.40;;;4.60;;
67747;SDS011;54543;50.712;6.070;2023-06-24T00:52:42;6.75;;;4.32;;
67747;SDS011;54543;50.712;6.070;2023-06-24T00:55:11;7.10;;;4.35;;
67747;SDS011;54543;50.712;6.070;2023-06-24T00:57:49;5.60;;;4.35;;
67747;SDS011;54543;50.712;6.070;2023-06-24T01:00:18;6.03;;;4.38;;
67747;SDS011;54543;50.712;6.070;2023-06-24T01:02:48;6.28;;;4.07;;
67747;SDS011;54543;50.712;6.070;2023-06-24T01:05:16;5.28;;;4.05;;
67747;SDS011;54543;50.712;6.070;2023-06-24T01:07:42;6.95;;;4.10;;
67747;SDS011;54543;50.712;6.070;2023-06-24T01:10:09;5.25;;;3.78;;
67747;SDS011;54543;50.712;6.070;2023-06-24T01:12:36;5.00;;;3.42;;
67747;SDS011;54543;50.712;6.070;2023-06-24T01:15:04;5.47;;;3.88;;
67747;SDS011;54543;50.712;6.070;2023-06-24T01:28:49;7.30;;;4.93;;
67747;SDS011;54543;50.712;6.070;2023-06-24T01:34:28;6.18;;;4.90;;
67747;SDS011;54543;50.712;6.070;2023-06-24T01:39:37;5.97;;;4.82;;
67747;SDS011;54543;50.712;6.070;2023-06-24T01:42:08;5.93;;;4.75;;
67747;SDS011;54543;50.712;6.070;2023-06-24T01:44:36;6.75;;;4.78;;
67747;SDS011;54543;50.712;6.070;2023-06-24T01:47:04;9.32;;;5.40;;
67747;SDS011;54543;50.712;6.070;2023-06-24T01:49:32;6.57;;;5.13;;
67747;SDS011;54543;50.712;6.070;2023-06-24T01:51:59;5.90;;;4.70;;
67747;SDS011;54543;50.712;6.070;2023-06-24T01:54:26;6.10;;;4.40;;
67747;SDS011;54543;50.712;6.070;2023-06-24T01:56:54;6.65;;;5.45;;
67747;SDS011;54543;50.712;6.070;2023-06-24T01:59:22;7.63;;;5.13;;
67747;SDS011;54543;50.712;6.070;2023-06-24T02:01:49;6.55;;;4.70;;
67747;SDS011;54543;50.712;6.070;2023-06-24T02:04:17;5.45;;;4.70;;
67747;SDS011;54543;50.712;6.070;2023-06-24T02:06:44;6.32;;;4.65;;
67747;SDS011;54543;50.712;6.070;2023-06-24T02:09:11;5.35;;;4.10;;
67747;SDS011;54543;50.712;6.070;2023-06-24T02:11:37;6.80;;;4.50;;
67747;SDS011;54543;50.712;6.070;2023-06-24T02:14:04;6.45;;;4.38;;
67747;SDS011;54543;50.712;6.070;2023-06-24T02:16:32;5.30;;;4.00;;
67747;SDS011;54543;50.712;6.070;2023-06-24T02:18:59;6.13;;;4.00;;
67747;SDS011;54543;50.712;6.070;2023-06-24T02:21:27;5.43;;;4.00;;
67747;SDS011;54543;50.712;6.070;2023-06-24T02:23:54;6.53;;;4.22;;
67747;SDS011;54543;50.712;6.070;2023-06-24T02:26:20;7.50;;;4.13;;
67747;SDS011;54543;50.712;6.070;2023-06-24T02:28:47;7.38;;;4.25;;
67747;SDS011;54543;50.712;6.070;2023-06-24T02:31:14;5.30;;;4.15;;
67747;SDS011;54543;50.712;6.070;2023-06-24T02:33:41;6.70;;;4.30;;
67747;SDS011;54543;50.712;6.070;2023-06-24T02:36:07;4.97;;;4.10;;
67747;SDS011;54543;50.712;6.070;2023-06-24T02:38:33;6.00;;;4.40;;
67747;SDS011;54543;50.712;6.070;2023-06-24T02:40:59;5.60;;;4.32;;
67747;SDS011;54543;50.712;6.070;2023-06-24T02:43:27;8.77;;;4.68;;
67747;SDS011;54543;50.712;6.070;2023-06-24T02:45:53;5.60;;;4.65;;
67747;SDS011;54543;50.712;6.070;2023-06-24T02:48:18;6.88;;;4.50;;
67747;SDS011;54543;50.712;6.070;2023-06-24T02:50:45;5.95;;;4.30;;
67747;SDS011;54543;50.712;6.070;2023-06-24T02:53:12;5.45;;;4.18;;
67747;SDS011;54543;50.712;6.070;2023-06-24T02:55:40;5.95;;;4.50;;
67747;SDS011;54543;50.712;6.070;2023-06-24T02:58:07;6.40;;;4.47;;
67747;SDS011;54543;50.712;6.070;2023-06-24T03:00:34;5.60;;;4.05;;
67747;SDS011;54543;50.712;6.070;2023-06-24T03:03:01;5.30;;;4.13;;
67747;SDS011;54543;50.712;6.070;2023-06-24T03:05:28;5.55;;;4.50;;
67747;SDS011;54543;50.712;6.070;2023-06-24T03:07:56;5.75;;;4.28;;
67747;SDS011;54543;50.712;6.070;2023-06-24T03:10:23;5.30;;;3.85;;
67747;SDS011;54543;50.712;6.070;2023-06-24T03:12:49;5.60;;;4.20;;
67747;SDS011;54543;50.712;6.070;2023-06-24T03:15:15;5.80;;;4.10;;
67747;SDS011;54543;50.712;6.070;2023-06-24T03:17:41;6.00;;;4.40;;
67747;SDS011;54543;50.712;6.070;2023-06-24T03:20:07;5.30;;;3.85;;
67747;SDS011;54543;50.712;6.070;2023-06-24T03:22:33;6.03;;;4.10;;
67747;SDS011;54543;50.712;6.070;2023-06-24T03:24:59;7.70;;;4.40;;
67747;SDS011;54543;50.712;6.070;2023-06-24T03:27:25;6.78;;;4.32;;
67747;SDS011;54543;50.712;6.070;2023-06-24T03:29:50;9.13;;;4.63;;
67747;SDS011;54543;50.712;6.070;2023-06-24T03:32:16;5.45;;;4.10;;
67747;SDS011;54543;50.712;6.070;2023-06-24T03:34:41;6.47;;;4.53;;
67747;SDS011;54543;50.712;6.070;2023-06-24T03:37:07;5.85;;;4.55;;
67747;SDS011;54543;50.712;6.070;2023-06-24T03:39:32;5.75;;;4.50;;
67747;SDS011;54543;50.712;6.070;2023-06-24T03:41:58;6.15;;;4.68;;
67747;SDS011;54543;50.712;6.070;2023-06-24T03:44:23;6.07;;;4.55;;
67747;SDS011;54543;50.712;6.070;2023-06-24T03:46:49;5.80;;;4.50;;
67747;SDS011;54543;50.712;6.070;2023-06-24T03:49:14;5.80;;;4.43;;
67747;SDS011;54543;50.712;6.070;2023-06-24T03:51:40;6.57;;;4.32;;
67747;SDS011;54543;50.712;6.070;2023-06-24T03:54:05;5.60;;;4.35;;
67747;SDS011;54543;50.712;6.070;2023-06-24T03:56:31;6.40;;;4.57;;
67747;SDS011;54543;50.712;6.070;2023-06-24T03:58:56;8.30;;;4.88;;
67747;SDS011;54543;50.712;6.070;2023-06-24T04:01:22;5.88;;;4.20;;
67747;SDS011;54543;50.712;6.070;2023-06-24T04:03:48;6.65;;;4.35;;
67747;SDS011;54543;50.712;6.070;2023-06-24T04:06:13;6.57;;;4.57;;
67747;SDS011;54543;50.712;6.070;2023-06-24T04:08:39;6.43;;;4.78;;
67747;SDS011;54543;50.712;6.070;2023-06-24T04:11:04;7.03;;;5.20;;
67747;SDS011;54543;50.712;6.070;2023-06-24T04:13:31;6.95;;;5.05;;
67747;SDS011;54543;50.712;6.070;2023-06-24T04:15:57;6.60;;;4.78;;
67747;SDS011;54543;50.712;6.070;2023-06-24T04:18:23;5.60;;;4.40;;
67747;SDS011;54543;50.712;6.070;2023-06-24T04:20:49;5.22;;;3.88;;
67747;SDS011;54543;50.712;6.070;2023-06-24T04:23:14;4.95;;;3.45;;
67747;SDS011;54543;50.712;6.070;2023-06-24T04:25:40;5.35;;;3.67;;
67747;SDS011;54543;50.712;6.070;2023-06-24T04:28:07;6.45;;;3.63;;
67747;SDS011;54543;50.712;6.070;2023-06-24T04:30:32;5.10;;;3.72;;
67747;SDS011;54543;50.712;6.070;2023-06-24T04:33:00;5.70;;;3.80;;
67747;SDS011;54543;50.712;6.070;2023-06-24T04:35:26;5.47;;;3.58;;
67747;SDS011;54543;50.712;6.070;2023-06-24T04:37:51;5.78;;;3.58;;
67747;SDS011;54543;50.712;6.070;2023-06-24T04:40:17;4.45;;;3.22;;
67747;SDS011;54543;50.712;6.070;2023-06-24T04:42:44;4.40;;;3.40;;
67747;SDS011;54543;50.712;6.070;2023-06-24T04:45:10;4.50;;;3.47;;
67747;SDS011;54543;50.712;6.070;2023-06-24T04:47:35;5.40;;;3.42;;
67747;SDS011;54543;50.712;6.070;2023-06-24T04:50:01;5.38;;;3.28;;
67747;SDS011;54543;50.712;6.070;2023-06-24T04:52:27;5.85;;;3.45;;
67747;SDS011;54543;50.712;6.070;2023-06-24T04:54:53;4.68;;;3.58;;
67747;SDS011;54543;50.712;6.070;2023-06-24T04:57:26;5.00;;;3.20;;
67747;SDS011;54543;50.712;6.070;2023-06-24T04:59:56;4.60;;;3.47;;
67747;SDS011;54543;50.712;6.070;2023-06-24T05:02:22;4.30;;;3.38;;
67747;SDS011;54543;50.712;6.070;2023-06-24T05:04:48;5.63;;;3.55;;
67747;SDS011;54543;50.712;6.070;2023-06-24T05:07:14;4.90;;;3.65;;
67747;SDS011;54543;50.712;6.070;2023-06-24T05:09:40;5.88;;;3.67;;
67747;SDS011;54543;50.712;6.070;2023-06-24T05:12:06;4.57;;;3.50;;
67747;SDS011;54543;50.712;6.070;2023-06-24T05:14:36;4.93;;;3.67;;
67747;SDS011;54543;50.712;6.070;2023-06-24T05:17:05;5.05;;;3.67;;
67747;SDS011;54543;50.712;6.070;2023-06-24T05:19:31;4.68;;;3.60;;
67747;SDS011;54543;50.712;6.070;2023-06-24T05:21:57;5.50;;;3.97;;
67747;SDS011;54543;50.712;6.070;2023-06-24T05:24:22;4.97;;;3.45;;
67747;SDS011;54543;50.712;6.070;2023-06-24T05:26:49;5.18;;;3.33;;
67747;SDS011;54543;50.712;6.070;2023-06-24T05:29:16;6.18;;;4.03;;
67747;SDS011;54543;50.712;6.070;2023-06-24T05:31:42;7.07;;;4.65;;
67747;SDS011;54543;50.712;6.070;2023-06-24T05:34:08;4.43;;;3.83;;
67747;SDS011;54543;50.712;6.070;2023-06-24T05:36:34;6.78;;;4.30;;
67747;SDS011;54543;50.712;6.070;2023-06-24T05:38:59;7.05;;;4.57;;
67747;SDS011;54543;50.712;6.070;2023-06-24T05:41:25;6.32;;;4.38;;
67747;SDS011;54543;50.712;6.070;2023-06-24T05:44:00;7.35;;;4.35;;
67747;SDS011;54543;50.712;6.070;2023-06-24T05:46:30;5.93;;;4.18;;
67747;SDS011;54543;50.712;6.070;2023-06-24T05:48:56;5.28;;;4.22;;
67747;SDS011;54543;50.712;6.070;2023-06-24T05:51:21;6.30;;;4.20;;
67747;SDS011;54543;50.712;6.070;2023-06-24T05:53:47;7.43;;;4.97;;
67747;SDS011;54543;50.712;6.070;2023-06-24T05:56:12;6.78;;;5.13;;
67747;SDS011;54543;50.712;6.070;2023-06-24T05:58:38;6.32;;;4.90;;
67747;SDS011;54543;50.712;6.070;2023-06-24T06:01:04;5.97;;;4.50;;
67747;SDS011;54543;50.712;6.070;2023-06-24T06:03:30;6.55;;;4.15;;
67747;SDS011;54543;50.712;6.070;2023-06-24T06:05:56;7.57;;;5.65;;
67747;SDS011;54543;50.712;6.070;2023-06-24T06:08:22;7.75;;;4.68;;
67747;SDS011;54543;50.712;6.070;2023-06-24T06:10:47;6.22;;;4.40;;
67747;SDS011;54543;50.712;6.070;2023-06-24T06:13:13;7.05;;;4.78;;
67747;SDS011;54543;50.712;6.070;2023-06-24T06:15:38;7.00;;;5.00;;
67747;SDS011;54543;50.712;6.070;2023-06-24T06:18:04;6.88;;;5.43;;
67747;SDS011;54543;50.712;6.070;2023-06-24T06:20:29;7.43;;;5.00;;
67747;SDS011;54543;50.712;6.070;2023-06-24T06:22:55;6.95;;;4.80;;
67747;SDS011;54543;50.712;6.070;2023-06-24T06:25:20;7.43;;;5.05;;
67747;SDS011;54543;50.712;6.070;2023-06-24T06:27:46;7.35;;;4.70;;
67747;SDS011;54543;50.712;6.070;2023-06-24T06:30:12;6.40;;;4.80;;
67747;SDS011;54543;50.712;6.070;2023-06-24T06:32:38;8.45;;;4.90;;
67747;SDS011;54543;50.712;6.070;2023-06-24T06:35:04;6.78;;;5.03;;
67747;SDS011;54543;50.712;6.070;2023-06-24T06:37:29;7.10;;;4.95;;
67747;SDS011;54543;50.712;6.070;2023-06-24T06:39:55;6.47;;;4.88;;
67747;SDS011;54543;50.712;6.070;2023-06-24T06:42:20;8.48;;;5.93;;
67747;SDS011;54543;50.712;6.070;2023-06-24T06:44:46;7.63;;;5.00;;
67747;SDS011;54543;50.712;6.070;2023-06-24T06:47:11;10.02;;;6.20;;
67747;SDS011;54543;50.712;6.070;2023-06-24T06:49:37;7.93;;;5.72;;
67747;SDS011;54543;50.712;6.070;2023-06-24T06:52:02;10.07;;;7.13;;
67747;SDS011;54543;50.712;6.070;2023-06-24T06:54:28;7.43;;;5.85;;
67747;SDS011;54543;50.712;6.070;2023-06-24T06:56:54;8.85;;;6.63;;
67747;SDS011;54543;50.712;6.070;2023-06-24T06:59:20;7.50;;;5.40;;
67747;SDS011;54543;50.712;6.070;2023-06-24T07:01:46;8.27;;;5.40;;
67747;SDS011;54543;50.712;6.070;2023-06-24T07:04:11;8.98;;;6.38;;
67747;SDS011;54543;50.712;6.070;2023-06-24T07:06:37;7.75;;;5.90;;
67747;SDS011;54543;50.712;6.070;2023-06-24T07:09:02;7.43;;;5.40;;
67747;SDS011;54543;50.712;6.070;2023-06-24T07:11:28;8.85;;;5.30;;
67747;SDS011;54543;50.712;6.070;2023-06-24T07:13:55;7.10;;;5.63;;
67747;SDS011;54543;50.712;6.070;2023-06-24T07:16:20;7.78;;;5.80;;
67747;SDS011;54543;50.712;6.070;2023-06-24T07:18:46;9.23;;;6.22;;
67747;SDS011;54543;50.712;6.070;2023-06-24T07:21:12;11.15;;;6.75;;
67747;SDS011;54543;50.712;6.070;2023-06-24T07:23:37;8.63;;;6.25;;
67747;SDS011;54543;50.712;6.070;2023-06-24T07:26:03;10.75;;;7.50;;
67747;SDS011;54543;50.712;6.070;2023-06-24T07:28:28;8.40;;;5.38;;
67747;SDS011;54543;50.712;6.070;2023-06-24T07:30:54;10.07;;;6.95;;
67747;SDS011;54543;50.712;6.070;2023-06-24T07:33:19;10.00;;;7.05;;
67747;SDS011;54543;50.712;6.070;2023-06-24T07:35:45;7.78;;;5.75;;
67747;SDS011;54543;50.712;6.070;2023-06-24T07:38:10;8.73;;;6.30;;
67747;SDS011;54543;50.712;6.070;2023-06-24T07:40:36;9.85;;;6.53;;
67747;SDS011;54543;50.712;6.070;2023-06-24T07:43:01;8.63;;;6.28;;
67747;SDS011;54543;50.712;6.070;2023-06-24T07:45:27;7.68;;;5.93;;
67747;SDS011;54543;50.712;6.070;2023-06-24T07:47:52;10.02;;;6.55;;
67747;SDS011;54543;50.712;6.070;2023-06-24T07:50:18;10.23;;;6.35;;
67747;SDS011;54543;50.712;6.070;2023-06-24T07:52:43;8.95;;;6.43;;
67747;SDS011;54543;50.712;6.070;2023-06-24T07:55:09;12.00;;;7.30;;
67747;SDS011;54543;50.712;6.070;2023-06-24T07:57:36;10.80;;;7.43;;
67747;SDS011;54543;50.712;6.070;2023-06-24T08:00:01;9.50;;;5.97;;
67747;SDS011;54543;50.712;6.070;2023-06-24T08:02:27;15.25;;;8.30;;
67747;SDS011;54543;50.712;6.070;2023-06-24T08:04:53;21.05;;;8.80;;
67747;SDS011;54543;50.712;6.070;2023-06-24T08:07:19;10.30;;;7.30;;
67747;SDS011;54543;50.712;6.070;2023-06-24T08:09:45;8.80;;;6.18;;
67747;SDS011;54543;50.712;6.070;2023-06-24T08:12:10;12.20;;;7.13;;
67747;SDS011;54543;50.712;6.070;2023-06-24T08:14:36;8.85;;;6.47;;
67747;SDS011;54543;50.712;6.070;2023-06-24T08:17:02;13.20;;;6.65;;
67747;SDS011;54543;50.712;6.070;2023-06-24T08:19:27;14.45;;;7.50;;
67747;SDS011;54543;50.712;6.070;2023-06-24T08:21:53;17.17;;;8.18;;
67747;SDS011;54543;50.712;6.070;2023-06-24T08:24:18;9.40;;;5.85;;
67747;SDS011;54543;50.712;6.070;2023-06-24T08:26:44;11.57;;;6.65;;
67747;SDS011;54543;50.712;6.070;2023-06-24T08:29:09;13.15;;;7.82;;
67747;SDS011;54543;50.712;6.070;2023-06-24T08:31:35;13.70;;;7.43;;
67747;SDS011;54543;50.712;6.070;2023-06-24T08:34:00;13.30;;;7.38;;
67747;SDS011;54543;50.712;6.070;2023-06-24T08:36:31;9.20;;;5.90;;
67747;SDS011;54543;50.712;6.070;2023-06-24T08:38:57;8.95;;;5.70;;
67747;SDS011;54543;50.712;6.070;2023-06-24T08:41:22;8.25;;;5.15;;
67747;SDS011;54543;50.712;6.070;2023-06-24T08:43:50;9.63;;;6.00;;
67747;SDS011;54543;50.712;6.070;2023-06-24T08:46:16;7.40;;;4.78;;
67747;SDS011;54543;50.712;6.070;2023-06-24T08:48:43;8.07;;;5.15;;
67747;SDS011;54543;50.712;6.070;2023-06-24T08:51:11;9.18;;;5.65;;
67747;SDS011;54543;50.712;6.070;2023-06-24T08:53:41;9.40;;;6.03;;
67747;SDS011;54543;50.712;6.070;2023-06-24T08:56:11;7.03;;;4.32;;
67747;SDS011;54543;50.712;6.070;2023-06-24T08:58:38;8.18;;;5.30;;
67747;SDS011;54543;50.712;6.070;2023-06-24T09:01:05;7.88;;;4.90;;
67747;SDS011;54543;50.712;6.070;2023-06-24T09:03:31;7.05;;;4.85;;
67747;SDS011;54543;50.712;6.070;2023-06-24T09:05:57;8.90;;;5.05;;
67747;SDS011;54543;50.712;6.070;2023-06-24T09:08:22;6.53;;;4.93;;
67747;SDS011;54543;50.712;6.070;2023-06-24T09:10:52;8.23;;;4.50;;
67747;SDS011;54543;50.712;6.070;2023-06-24T09:13:27;8.13;;;4.90;;
67747;SDS011;54543;50.712;6.070;2023-06-24T09:16:00;6.85;;;4.93;;
67747;SDS011;54543;50.712;6.070;2023-06-24T09:18:36;11.45;;;5.60;;
67747;SDS011;54543;50.712;6.070;2023-06-24T09:21:02;9.68;;;4.97;;
67747;SDS011;54543;50.712;6.070;2023-06-24T09:23:28;8.73;;;5.38;;
67747;SDS011;54543;50.712;6.070;2023-06-24T09:25:56;7.38;;;4.80;;
67747;SDS011;54543;50.712;6.070;2023-06-24T09:28:26;8.40;;;4.97;;
67747;SDS011;54543;50.712;6.070;2023-06-24T09:31:08;11.20;;;5.90;;
67747;SDS011;54543;50.712;6.070;2023-06-24T09:33:34;10.48;;;5.55;;
67747;SDS011;54543;50.712;6.070;2023-06-24T09:36:03;8.18;;;5.43;;
67747;SDS011;54543;50.712;6.070;2023-06-24T09:38:33;6.05;;;4.05;;
67747;SDS011;54543;50.712;6.070;2023-06-24T09:41:02;6.35;;;4.10;;
67747;SDS011;54543;50.712;6.070;2023-06-24T09:43:29;8.38;;;5.32;;
67747;SDS011;54543;50.712;6.070;2023-06-24T09:45:55;7.85;;;5.00;;
67747;SDS011;54543;50.712;6.070;2023-06-24T09:48:22;7.68;;;4.50;;
67747;SDS011;54543;50.712;6.070;2023-06-24T09:50:47;7.82;;;4.47;;
67747;SDS011;54543;50.712;6.070;2023-06-24T09:53:13;5.38;;;3.65;;
67747;SDS011;54543;50.712;6.070;2023-06-24T09:55:40;10.57;;;7.40;;
67747;SDS011;54543;50.712;6.070;2023-06-24T09:58:08;6.70;;;4.40;;
67747;SDS011;54543;50.712;6.070;2023-06-24T10:00:36;6.47;;;4.43;;
67747;SDS011;54543;50.712;6.070;2023-06-24T10:03:02;8.30;;;5.88;;
67747;SDS011;54543;50.712;6.070;2023-06-24T10:05:28;10.35;;;7.40;;
67747;SDS011;54543;50.712;6.070;2023-06-24T10:07:54;6.90;;;4.85;;
67747;SDS011;54543;50.712;6.070;2023-06-24T10:10:19;6.38;;;4.25;;
67747;SDS011;54543;50.712;6.070;2023-06-24T10:12:45;5.43;;;3.58;;
67747;SDS011;54543;50.712;6.070;2023-06-24T10:15:11;4.38;;;3.00;;
67747;SDS011;54543;50.712;6.070;2023-06-24T10:17:37;6.72;;;4.30;;
67747;SDS011;54543;50.712;6.070;2023-06-24T10:20:06;6.22;;;4.35;;
67747;SDS011;54543;50.712;6.070;2023-06-24T10:22:32;12.35;;;7.78;;
67747;SDS011;54543;50.712;6.070;2023-06-24T10:25:01;6.60;;;4.75;;
67747;SDS011;54543;50.712;6.070;2023-06-24T10:27:27;6.85;;;5.28;;
67747;SDS011;54543;50.712;6.070;2023-06-24T10:29:57;10.60;;;6.35;;
67747;SDS011;54543;50.712;6.070;2023-06-24T10:32:28;12.00;;;7.68;;
67747;SDS011;54543;50.712;6.070;2023-06-24T10:35:05;11.32;;;7.57;;
67747;SDS011;54543;50.712;6.070;2023-06-24T10:37:31;6.72;;;4.85;;
67747;SDS011;54543;50.712;6.070;2023-06-24T10:39:58;7.07;;;4.30;;
67747;SDS011;54543;50.712;6.070;2023-06-24T10:42:42;6.05;;;3.63;;
67747;SDS011;54543;50.712;6.070;2023-06-24T10:47:38;9.20;;;5.93;;
67747;SDS011;54543;50.712;6.070;2023-06-24T10:50:08;7.85;;;4.60;;
67747;SDS011;54543;50.712;6.070;2023-06-24T10:52:38;4.28;;;2.95;;
67747;SDS011;54543;50.712;6.070;2023-06-24T10:55:05;4.63;;;3.20;;
67747;SDS011;54543;50.712;6.070;2023-06-24T10:57:32;5.13;;;3.83;;
67747;SDS011;54543;50.712;6.070;2023-06-24T10:59:58;9.02;;;5.43;;
67747;SDS011;54543;50.712;6.070;2023-06-24T11:02:24;10.77;;;6.60;;
67747;SDS011;54543;50.712;6.070;2023-06-24T11:04:51;8.40;;;6.07;;
67747;SDS011;54543;50.712;6.070;2023-06-24T11:07:23;7.07;;;4.43;;
67747;SDS011;54543;50.712;6.070;2023-06-24T11:09:50;5.68;;;3.80;;
67747;SDS011;54543;50.712;6.070;2023-06-24T11:12:30;4.05;;;2.95;;
67747;SDS011;54543;50.712;6.070;2023-06-24T11:14:57;3.88;;;2.60;;
67747;SDS011;54543;50.712;6.070;2023-06-24T11:17:25;7.03;;;3.05;;
67747;SDS011;54543;50.712;6.070;2023-06-24T11:19:54;8.00;;;4.88;;
67747;SDS011;54543;50.712;6.070;2023-06-24T11:22:21;6.32;;;4.65;;
67747;SDS011;54543;50.712;6.070;2023-06-24T11:24:47;6.88;;;5.10;;
67747;SDS011;54543;50.712;6.070;2023-06-24T11:27:13;7.03;;;5.57;;
67747;SDS011;54543;50.712;6.070;2023-06-24T11:29:38;5.95;;;4.10;;
67747;SDS011;54543;50.712;6.070;2023-06-24T11:32:06;7.75;;;5.15;;
67747;SDS011;54543;50.712;6.070;2023-06-24T11:34:33;5.82;;;4.38;;
67747;SDS011;54543;50.712;6.070;2023-06-24T11:37:21;4.50;;;3.10;;
67747;SDS011;54543;50.712;6.070;2023-06-24T11:39:59;8.50;;;6.70;;
67747;SDS011;54543;50.712;6.070;2023-06-24T11:42:27;6.57;;;4.85;;
67747;SDS011;54543;50.712;6.070;2023-06-24T11:44:54;4.43;;;3.15;;
67747;SDS011;54543;50.712;6.070;2023-06-24T11:47:30;5.37;;;3.33;;
67747;SDS011;54543;50.712;6.070;2023-06-24T11:49:58;8.13;;;4.88;;
67747;SDS011;54543;50.712;6.070;2023-06-24T11:52:58;4.88;;;3.40;;
67747;SDS011;54543;50.712;6.070;2023-06-24T11:55:20;7.15;;;5.45;;
67747;SDS011;54543;50.712;6.070;2023-06-24T12:00:30;4.85;;;3.30;;
67747;SDS011;54543;50.712;6.070;2023-06-24T12:02:58;7.07;;;4.93;;
67747;SDS011;54543;50.712;6.070;2023-06-24T12:08:11;4.70;;;3.28;;
67747;SDS011;54543;50.712;6.070;2023-06-24T12:10:40;3.80;;;2.60;;
67747;SDS011;54543;50.712;6.070;2023-06-24T12:13:06;4.78;;;2.60;;
67747;SDS011;54543;50.712;6.070;2023-06-24T12:15:33;4.15;;;2.80;;
67747;SDS011;54543;50.712;6.070;2023-06-24T12:17:59;3.60;;;2.63;;
67747;SDS011;54543;50.712;6.070;2023-06-24T12:20:27;6.65;;;4.07;;
67747;SDS011;54543;50.712;6.070;2023-06-24T12:22:53;5.15;;;3.40;;
67747;SDS011;54543;50.712;6.070;2023-06-24T12:25:19;4.80;;;2.72;;
67747;SDS011;54543;50.712;6.070;2023-06-24T12:27:45;3.42;;;2.55;;
67747;SDS011;54543;50.712;6.070;2023-06-24T12:30:11;3.53;;;2.40;;
67747;SDS011;54543;50.712;6.070;2023-06-24T12:32:37;3.47;;;2.47;;
67747;SDS011;54543;50.712;6.070;2023-06-24T12:35:03;5.15;;;3.25;;
67747;SDS011;54543;50.712;6.070;2023-06-24T12:37:32;5.57;;;4.00;;
67747;SDS011;54543;50.712;6.070;2023-06-24T12:40:01;4.28;;;3.00;;
67747;SDS011;54543;50.712;6.070;2023-06-24T12:42:30;6.25;;;3.80;;
67747;SDS011;54543;50.712;6.070;2023-06-24T12:44:55;4.28;;;2.80;;
67747;SDS011;54543;50.712;6.070;2023-06-24T12:47:21;3.60;;;2.50;;
67747;SDS011;54543;50.712;6.070;2023-06-24T12:49:47;7.72;;;3.75;;
67747;SDS011;54543;50.712;6.070;2023-06-24T12:52:13;4.93;;;3.53;;
67747;SDS011;54543;50.712;6.070;2023-06-24T12:54:40;4.60;;;3.40;;
67747;SDS011;54543;50.712;6.070;2023-06-24T12:57:05;3.67;;;2.67;;
67747;SDS011;54543;50.712;6.070;2023-06-24T12:59:31;3.50;;;2.88;;
67747;SDS011;54543;50.712;6.070;2023-06-24T13:01:57;5.10;;;3.28;;
67747;SDS011;54543;50.712;6.070;2023-06-24T13:04:22;4.32;;;3.40;;
67747;SDS011;54543;50.712;6.070;2023-06-24T13:06:49;3.97;;;2.65;;
67747;SDS011;54543;50.712;6.070;2023-06-24T13:09:17;5.45;;;4.03;;
67747;SDS011;54543;50.712;6.070;2023-06-24T13:11:43;6.93;;;4.22;;
67747;SDS011;54543;50.712;6.070;2023-06-24T13:14:08;4.50;;;2.95;;
67747;SDS011;54543;50.712;6.070;2023-06-24T13:16:37;3.80;;;2.85;;
67747;SDS011;54543;50.712;6.070;2023-06-24T13:19:03;3.45;;;2.60;;
67747;SDS011;54543;50.712;6.070;2023-06-24T13:21:28;3.67;;;2.85;;
67747;SDS011;54543;50.712;6.070;2023-06-24T13:23:54;4.57;;;2.90;;
67747;SDS011;54543;50.712;6.070;2023-06-24T13:26:20;6.40;;;3.95;;
67747;SDS011;54543;50.712;6.070;2023-06-24T13:28:45;4.85;;;2.88;;
67747;SDS011;54543;50.712;6.070;2023-06-24T13:31:11;3.45;;;2.50;;
67747;SDS011;54543;50.712;6.070;2023-06-24T13:33:36;4.40;;;2.33;;
67747;SDS011;54543;50.712;6.070;2023-06-24T13:36:03;2.45;;;1.77;;
67747;SDS011;54543;50.712;6.070;2023-06-24T13:38:30;3.67;;;2.20;;
67747;SDS011;54543;50.712;6.070;2023-06-24T13:40:55;3.25;;;2.13;;
67747;SDS011;54543;50.712;6.070;2023-06-24T13:43:21;3.08;;;2.15;;
67747;SDS011;54543;50.712;6.070;2023-06-24T13:45:46;2.83;;;2.10;;
67747;SDS011;54543;50.712;6.070;2023-06-24T13:48:12;3.67;;;2.35;;
67747;SDS011;54543;50.712;6.070;2023-06-24T13:50:38;4.32;;;2.70;;
67747;SDS011;54543;50.712;6.070;2023-06-24T13:53:03;4.82;;;3.28;;
67747;SDS011;54543;50.712;6.070;2023-06-24T13:55:29;3.70;;;2.50;;
67747;SDS011;54543;50.712;6.070;2023-06-24T13:57:56;4.03;;;2.47;;
67747;SDS011;54543;50.712;6.070;2023-06-24T14:00:22;3.75;;;2.50;;
67747;SDS011;54543;50.712;6.070;2023-06-24T14:02:47;4.30;;;2.72;;
67747;SDS011;54543;50.712;6.070;2023-06-24T14:05:13;4.10;;;2.30;;
67747;SDS011;54543;50.712;6.070;2023-06-24T14:07:39;3.00;;;1.80;;
67747;SDS011;54543;50.712;6.070;2023-06-24T14:10:04;4.28;;;2.60;;
67747;SDS011;54543;50.712;6.070;2023-06-24T14:12:30;3.45;;;2.17;;
67747;SDS011;54543;50.712;6.070;2023-06-24T14:14:56;3.15;;;2.15;;
67747;SDS011;54543;50.712;6.070;2023-06-24T14:17:22;3.10;;;1.92;;
67747;SDS011;54543;50.712;6.070;2023-06-24T14:19:48;2.80;;;1.88;;
67747;SDS011;54543;50.712;6.070;2023-06-24T14:22:13;4.68;;;2.10;;
67747;SDS011;54543;50.712;6.070;2023-06-24T14:24:39;2.55;;;1.70;;
67747;SDS011;54543;50.712;6.070;2023-06-24T14:27:05;3.20;;;2.10;;
67747;SDS011;54543;50.712;6.070;2023-06-24T14:29:31;3.60;;;1.90;;
67747;SDS011;54543;50.712;6.070;2023-06-24T14:31:57;2.53;;;1.80;;
67747;SDS011;54543;50.712;6.070;2023-06-24T14:34:23;3.47;;;1.77;;
67747;SDS011;54543;50.712;6.070;2023-06-24T14:36:48;4.25;;;1.90;;
67747;SDS011;54543;50.712;6.070;2023-06-24T14:39:14;2.47;;;1.80;;
67747;SDS011;54543;50.712;6.070;2023-06-24T14:41:41;2.35;;;1.90;;
67747;SDS011;54543;50.712;6.070;2023-06-24T14:44:07;2.92;;;1.90;;
67747;SDS011;54543;50.712;6.070;2023-06-24T14:46:33;3.05;;;2.10;;
67747;SDS011;54543;50.712;6.070;2023-06-24T14:48:58;2.40;;;1.83;;
67747;SDS011;54543;50.712;6.070;2023-06-24T14:51:24;2.60;;;1.67;;
67747;SDS011;54543;50.712;6.070;2023-06-24T14:53:50;2.75;;;1.83;;
67747;SDS011;54543;50.712;6.070;2023-06-24T14:56:15;2.88;;;1.80;;
67747;SDS011;54543;50.712;6.070;2023-06-24T14:58:41;2.58;;;2.10;;
67747;SDS011;54543;50.712;6.070;2023-06-24T15:01:06;3.05;;;2.08;;
67747;SDS011;54543;50.712;6.070;2023-06-24T15:03:32;2.50;;;1.75;;
67747;SDS011;54543;50.712;6.070;2023-06-24T15:05:58;2.53;;;1.80;;
67747;SDS011;54543;50.712;6.070;2023-06-24T15:08:23;2.53;;;1.85;;